Time;durP1;ratioP1;P1;durP2;ratioP2;P2;SDS_P1;SDS_P2;PMS_P1;PMS_P2;Temp;Humidity;BMP_temperature;BMP_pressure;BME280_temperature;BME280_humidity;BME280_pressure;Samples;Min_cycle;Max_cycle;Signal;HPM_P1;HPM_P2
2024/04/17 00:01:57;;;;;;;17.10;5.72;;;;;;;;;;4343677;32;319036;-83
2024/04/17 00:04:24;;;;;;;8.93;3.83;;;;;;;;;;4349372;32;317441;-83
2024/04/17 00:06:49;;;;;;;9.13;3.97;;;;;;;;;;4332407;32;320433;-83
2024/04/17 00:09:16;;;;;;;9.35;3.47;;;;;;;;;;4333121;32;355991;-83
2024/04/17 00:11:43;;;;;;;12.55;4.47;;;;;;;;;;4322251;32;317631;-83
2024/04/17 00:14:10;;;;;;;14.82;3.90;;;;;;;;;;4336290;32;318355;-83
2024/04/17 00:16:36;;;;;;;10.45;3.47;;;;;;;;;;4349156;32;317677;-83
2024/04/17 00:19:02;;;;;;;19.87;3.90;;;;;;;;;;4334400;32;373782;-84
2024/04/17 00:21:28;;;;;;;8.75;3.78;;;;;;;;;;4348161;32;318272;-82
2024/04/17 00:23:55;;;;;;;12.10;4.22;;;;;;;;;;4331709;32;317341;-84
2024/04/17 00:26:21;;;;;;;11.27;4.50;;;;;;;;;;4348903;32;317579;-84
2024/04/17 00:28:49;;;;;;;10.73;4.07;;;;;;;;;;4339169;32;318219;-83
2024/04/17 00:31:15;;;;;;;12.48;3.75;;;;;;;;;;4349444;32;318585;-82
2024/04/17 00:33:41;;;;;;;9.43;3.62;;;;;;;;;;4338888;32;340627;-84
2024/04/17 00:36:07;;;;;;;11.25;3.62;;;;;;;;;;4341250;32;317347;-84
2024/04/17 00:38:34;;;;;;;9.23;3.60;;;;;;;;;;4347431;32;317549;-84
2024/04/17 00:40:59;;;;;;;10.85;3.53;;;;;;;;;;4338806;32;317296;-84
2024/04/17 00:43:27;;;;;;;9.48;3.37;;;;;;;;;;4348258;32;318285;-84
2024/04/17 00:45:56;;;;;;;13.75;4.43;;;;;;;;;;4330406;32;317049;-85
2024/04/17 00:48:22;;;;;;;14.25;4.55;;;;;;;;;;4349438;32;319002;-85
2024/04/17 00:50:50;;;;;;;16.20;3.53;;;;;;;;;;4337783;32;318361;-84
2024/04/17 00:53:20;;;;;;;19.98;4.62;;;;;;;;;;4347637;32;318237;-84
2024/04/17 00:55:47;;;;;;;24.48;5.22;;;;;;;;;;4335816;32;318296;-85
2024/04/17 00:58:14;;;;;;;15.48;4.22;;;;;;;;;;4345264;32;318284;-85
2024/04/17 01:00:40;;;;;;;12.55;4.50;;;;;;;;;;4339370;32;318097;-82
2024/04/17 01:03:07;;;;;;;17.20;5.07;;;;;;;;;;4357801;32;318065;-82
2024/04/17 01:05:34;;;;;;;9.43;3.65;;;;;;;;;;4364829;32;316806;-81
2024/04/17 01:08:00;;;;;;;11.07;5.00;;;;;;;;;;4350678;32;316577;-83
2024/04/17 01:10:27;;;;;;;7.68;3.75;;;;;;;;;;4352440;32;318309;-84
2024/04/17 01:12:53;;;;;;;10.40;3.67;;;;;;;;;;4341375;32;317396;-82
2024/04/17 01:15:21;;;;;;;17.67;5.75;;;;;;;;;;4351512;32;337152;-85
2024/04/17 01:17:47;;;;;;;11.30;5.20;;;;;;;;;;4339774;32;318119;-83
2024/04/17 01:20:15;;;;;;;17.02;5.45;;;;;;;;;;4347806;32;318408;-83
2024/04/17 01:22:41;;;;;;;14.75;4.10;;;;;;;;;;4340189;32;318387;-85
2024/04/17 01:25:09;;;;;;;24.63;6.22;;;;;;;;;;4350805;32;318345;-85
2024/04/17 01:27:35;;;;;;;18.37;4.43;;;;;;;;;;4348874;32;356139;-83
2024/04/17 01:30:02;;;;;;;15.70;4.70;;;;;;;;;;4333254;32;331930;-85
2024/04/17 01:32:28;;;;;;;11.12;4.57;;;;;;;;;;4353847;32;318212;-84
2024/04/17 01:34:55;;;;;;;16.55;5.22;;;;;;;;;;4345070;32;318134;-83
2024/04/17 01:37:20;;;;;;;18.77;5.18;;;;;;;;;;4354902;32;318431;-83
2024/04/17 01:39:47;;;;;;;17.08;4.75;;;;;;;;;;4343118;32;318164;-84
2024/04/17 01:42:14;;;;;;;15.90;5.05;;;;;;;;;;4347094;32;339868;-84
2024/04/17 01:44:41;;;;;;;12.13;4.53;;;;;;;;;;4326648;32;353799;-83
2024/04/17 01:47:07;;;;;;;12.68;4.72;;;;;;;;;;4339969;32;317862;-84
2024/04/17 01:49:34;;;;;;;14.23;4.35;;;;;;;;;;4339762;32;331897;-83
2024/04/17 01:51:59;;;;;;;16.00;5.40;;;;;;;;;;4337226;32;318653;-83
2024/04/17 01:54:26;;;;;;;15.00;5.03;;;;;;;;;;4354210;32;317466;-83
2024/04/17 01:56:52;;;;;;;10.77;4.80;;;;;;;;;;4343310;32;348359;-83
2024/04/17 01:59:20;;;;;;;21.00;5.75;;;;;;;;;;4353563;32;326074;-83
2024/04/17 02:01:45;;;;;;;9.82;4.70;;;;;;;;;;4344204;32;317995;-84
2024/04/17 02:04:12;;;;;;;18.58;4.60;;;;;;;;;;4349330;32;317368;-83
2024/04/17 02:06:38;;;;;;;15.68;5.22;;;;;;;;;;4339963;32;318414;-83
2024/04/17 02:09:05;;;;;;;21.02;4.60;;;;;;;;;;4352513;32;317376;-83
2024/04/17 02:11:30;;;;;;;16.48;5.12;;;;;;;;;;4354222;32;318241;-83
2024/04/17 02:13:57;;;;;;;19.83;5.35;;;;;;;;;;4337055;32;317991;-85
2024/04/17 02:16:24;;;;;;;16.02;6.25;;;;;;;;;;4353801;32;318440;-83
2024/04/17 02:18:51;;;;;;;17.30;4.93;;;;;;;;;;4344231;32;318600;-83
2024/04/17 02:21:17;;;;;;;11.15;4.62;;;;;;;;;;4354029;32;318254;-84
2024/04/17 02:23:47;;;;;;;16.23;5.45;;;;;;;;;;4343432;32;318162;-83
2024/04/17 02:26:13;;;;;;;17.95;4.53;;;;;;;;;;4350079;32;318221;-84
2024/04/17 02:28:39;;;;;;;12.68;4.22;;;;;;;;;;4350268;32;318381;-85
2024/04/17 02:31:05;;;;;;;14.77;4.85;;;;;;;;;;4366160;32;316821;-84
2024/04/17 02:33:33;;;;;;;14.87;4.20;;;;;;;;;;4365418;32;338036;-84
2024/04/17 02:35:59;;;;;;;13.18;4.78;;;;;;;;;;4346240;32;318210;-85
2024/04/17 02:38:26;;;;;;;13.18;4.35;;;;;;;;;;4350878;32;318284;-84
2024/04/17 02:40:51;;;;;;;12.48;5.03;;;;;;;;;;4342175;32;318861;-84
2024/04/17 02:43:18;;;;;;;13.27;4.93;;;;;;;;;;4351056;32;317340;-83
2024/04/17 02:45:44;;;;;;;12.82;5.32;;;;;;;;;;4341763;32;318334;-83
2024/04/17 02:48:10;;;;;;;13.73;4.70;;;;;;;;;;4344917;32;318019;-85
2024/04/17 02:50:41;;;;;;;24.20;5.25;;;;;;;;;;4346700;32;318337;-84
2024/04/17 02:53:08;;;;;;;14.13;5.55;;;;;;;;;;4351417;32;317697;-85
2024/04/17 02:55:34;;;;;;;17.25;5.62;;;;;;;;;;4350932;32;318166;-85
2024/04/17 02:58:01;;;;;;;19.73;7.15;;;;;;;;;;4335785;32;317333;-83
2024/04/17 03:00:26;;;;;;;12.85;5.15;;;;;;;;;;4350888;32;318278;-84
2024/04/17 03:02:53;;;;;;;15.13;6.05;;;;;;;;;;4326743;32;318282;-83
2024/04/17 03:05:19;;;;;;;15.38;5.30;;;;;;;;;;4337860;32;318260;-84
2024/04/17 03:07:47;;;;;;;12.37;5.15;;;;;;;;;;4342199;32;326563;-84
2024/04/17 03:10:13;;;;;;;21.48;5.50;;;;;;;;;;4348319;32;317841;-82
2024/04/17 03:12:39;;;;;;;13.82;6.32;;;;;;;;;;4341655;32;318384;-82
2024/04/17 03:15:06;;;;;;;16.65;5.78;;;;;;;;;;4350804;32;317497;-84
2024/04/17 03:17:33;;;;;;;19.00;6.12;;;;;;;;;;4349665;32;317760;-84
2024/04/17 03:19:59;;;;;;;17.98;6.55;;;;;;;;;;4335793;32;328296;-84
2024/04/17 03:22:26;;;;;;;24.08;6.55;;;;;;;;;;4351978;32;318228;-84
2024/04/17 03:24:53;;;;;;;16.90;5.47;;;;;;;;;;4341182;32;318654;-83
2024/04/17 03:27:19;;;;;;;18.62;7.45;;;;;;;;;;4352437;32;318205;-83
2024/04/17 03:29:45;;;;;;;20.60;6.50;;;;;;;;;;4341130;32;318143;-84
2024/04/17 03:32:12;;;;;;;13.55;6.68;;;;;;;;;;4345343;32;318164;-83
2024/04/17 03:34:38;;;;;;;11.82;6.68;;;;;;;;;;4342283;32;318664;-84
2024/04/17 03:37:05;;;;;;;16.55;5.82;;;;;;;;;;4352313;32;318257;-84
2024/04/17 03:39:31;;;;;;;21.33;5.25;;;;;;;;;;4351640;32;318174;-83
2024/04/17 03:41:59;;;;;;;14.38;5.00;;;;;;;;;;4333747;32;319102;-84
2024/04/17 03:44:25;;;;;;;10.07;4.62;;;;;;;;;;4351050;32;318847;-84
2024/04/17 03:46:52;;;;;;;17.25;5.32;;;;;;;;;;4340324;32;317480;-84
2024/04/17 03:49:18;;;;;;;12.23;3.75;;;;;;;;;;4351287;32;317612;-83
2024/04/17 03:51:44;;;;;;;13.25;3.83;;;;;;;;;;4339905;32;318299;-83
2024/04/17 03:54:11;;;;;;;13.00;5.62;;;;;;;;;;4343116;32;318294;-83
2024/04/17 03:56:36;;;;;;;11.57;4.50;;;;;;;;;;4341179;32;318358;-83
2024/04/17 03:59:05;;;;;;;9.45;5.45;;;;;;;;;;4350023;32;317587;-83
2024/04/17 04:01:34;;;;;;;20.08;5.72;;;;;;;;;;4348945;32;317131;-84
2024/04/17 04:04:01;;;;;;;11.95;5.12;;;;;;;;;;4331753;32;348700;-83
2024/04/17 04:06:27;;;;;;;11.12;4.85;;;;;;;;;;4350447;32;318346;-83
2024/04/17 04:08:53;;;;;;;10.32;4.55;;;;;;;;;;4339605;32;317585;-83
2024/04/17 04:11:19;;;;;;;12.10;5.15;;;;;;;;;;4347540;32;317458;-84
2024/04/17 04:13:46;;;;;;;12.70;4.87;;;;;;;;;;4336889;32;318711;-83
2024/04/17 04:16:13;;;;;;;18.75;7.53;;;;;;;;;;4342979;32;318254;-83
2024/04/17 04:18:40;;;;;;;18.75;7.68;;;;;;;;;;4339390;32;318361;-83
2024/04/17 04:21:05;;;;;;;22.35;9.55;;;;;;;;;;4344082;32;318122;-83
2024/04/17 04:23:32;;;;;;;23.35;7.22;;;;;;;;;;4341458;32;317818;-83
2024/04/17 04:25:58;;;;;;;14.70;6.12;;;;;;;;;;4322505;32;318351;-83
2024/04/17 04:28:24;;;;;;;11.85;7.37;;;;;;;;;;4348341;32;318458;-83
2024/04/17 04:30:51;;;;;;;7.72;4.62;;;;;;;;;;4338115;32;318441;-84
2024/04/17 04:33:19;;;;;;;21.30;7.37;;;;;;;;;;4340833;32;318292;-83
2024/04/17 04:35:45;;;;;;;22.13;7.30;;;;;;;;;;4338262;32;318100;-83
2024/04/17 04:38:12;;;;;;;16.12;5.18;;;;;;;;;;4328510;32;317411;-84
2024/04/17 04:40:38;;;;;;;13.88;5.55;;;;;;;;;;4326102;32;318192;-84
2024/04/17 04:43:07;;;;;;;14.93;6.80;;;;;;;;;;4342760;32;318375;-82
2024/04/17 04:45:33;;;;;;;23.12;8.35;;;;;;;;;;4347165;32;317694;-84
2024/04/17 04:47:59;;;;;;;23.20;8.63;;;;;;;;;;4331703;32;318601;-83
2024/04/17 04:50:26;;;;;;;19.70;8.05;;;;;;;;;;4346556;32;335891;-84
2024/04/17 04:52:53;;;;;;;18.52;7.45;;;;;;;;;;4336732;32;318709;-83
2024/04/17 04:55:19;;;;;;;23.38;7.03;;;;;;;;;;4335810;32;318354;-84
2024/04/17 04:57:46;;;;;;;16.40;8.02;;;;;;;;;;4325339;32;317839;-83
2024/04/17 05:00:12;;;;;;;20.65;7.95;;;;;;;;;;4328454;32;339734;-83
2024/04/17 05:02:39;;;;;;;14.30;6.97;;;;;;;;;;4322101;32;318597;-84
2024/04/17 05:05:05;;;;;;;17.48;7.95;;;;;;;;;;4333773;32;318519;-84
2024/04/17 05:07:35;;;;;;;17.12;8.50;;;;;;;;;;4348898;32;318324;-84
2024/04/17 05:10:00;;;;;;;14.23;7.82;;;;;;;;;;4330776;32;318473;-84
2024/04/17 05:12:27;;;;;;;20.65;7.72;;;;;;;;;;4346527;32;318261;-83
2024/04/17 05:14:53;;;;;;;19.08;7.93;;;;;;;;;;4339180;32;318225;-84
2024/04/17 05:17:20;;;;;;;21.87;7.47;;;;;;;;;;4347979;32;318064;-84
2024/04/17 05:19:45;;;;;;;15.38;7.15;;;;;;;;;;4337179;32;318245;-82
2024/04/17 05:22:12;;;;;;;16.92;7.30;;;;;;;;;;4340909;32;317984;-85
2024/04/17 05:24:39;;;;;;;22.00;7.37;;;;;;;;;;4338266;32;318658;-83
2024/04/17 05:27:06;;;;;;;17.12;7.75;;;;;;;;;;4348180;32;317466;-83
2024/04/17 05:29:31;;;;;;;16.40;6.78;;;;;;;;;;4347104;32;318081;-82
2024/04/17 05:31:58;;;;;;;17.02;7.35;;;;;;;;;;4330215;32;318014;-84
2024/04/17 05:34:24;;;;;;;20.83;7.47;;;;;;;;;;4347913;32;318396;-84
2024/04/17 05:36:51;;;;;;;25.20;7.75;;;;;;;;;;4337668;32;318088;-84
2024/04/17 05:39:17;;;;;;;23.05;7.95;;;;;;;;;;4346951;32;318114;-82
2024/04/17 05:41:45;;;;;;;15.02;6.87;;;;;;;;;;4336383;32;347793;-80
2024/04/17 05:44:11;;;;;;;13.52;7.22;;;;;;;;;;4342130;32;352049;-80
2024/04/17 05:46:38;;;;;;;7.95;5.95;;;;;;;;;;4333581;32;323415;-79
2024/04/17 05:49:04;;;;;;;13.90;7.07;;;;;;;;;;4337468;32;318099;-80
2024/04/17 05:51:30;;;;;;;13.07;6.25;;;;;;;;;;4351678;32;317857;-80
2024/04/17 05:53:56;;;;;;;11.82;7.90;;;;;;;;;;4332416;32;318085;-80
2024/04/17 05:56:23;;;;;;;14.32;7.40;;;;;;;;;;4348591;32;318199;-79
2024/04/17 05:58:50;;;;;;;24.20;9.30;;;;;;;;;;4335938;32;318057;-79
2024/04/17 06:01:16;;;;;;;18.85;7.80;;;;;;;;;;4337677;32;318486;-80
2024/04/17 06:03:42;;;;;;;17.10;6.87;;;;;;;;;;4320894;32;322624;-80
2024/04/17 06:06:09;;;;;;;9.55;5.53;;;;;;;;;;4329583;32;352652;-80
2024/04/17 06:08:34;;;;;;;11.23;4.43;;;;;;;;;;4339925;32;317164;-80
2024/04/17 06:11:01;;;;;;;13.25;5.15;;;;;;;;;;4321706;32;318102;-80
2024/04/17 06:13:27;;;;;;;13.23;5.68;;;;;;;;;;4337283;32;318464;-80
2024/04/17 06:15:55;;;;;;;10.27;4.97;;;;;;;;;;4325982;32;318173;-78
2024/04/17 06:18:21;;;;;;;8.27;3.67;;;;;;;;;;4345380;32;318102;-79
2024/04/17 06:20:48;;;;;;;6.25;4.12;;;;;;;;;;4326469;32;317294;-79
2024/04/17 06:23:14;;;;;;;6.18;3.67;;;;;;;;;;4349543;32;317277;-80
2024/04/17 06:25:42;;;;;;;9.35;4.40;;;;;;;;;;4334303;32;316680;-79
2024/04/17 06:28:08;;;;;;;11.40;4.18;;;;;;;;;;4341777;32;317270;-79
2024/04/17 06:30:35;;;;;;;17.27;4.43;;;;;;;;;;4348017;32;318947;-79
2024/04/17 06:33:02;;;;;;;15.30;4.25;;;;;;;;;;4338964;32;318281;-80
2024/04/17 06:35:29;;;;;;;13.48;4.78;;;;;;;;;;4345822;32;338126;-79
2024/04/17 06:37:56;;;;;;;6.75;4.07;;;;;;;;;;4333444;32;318125;-79
2024/04/17 06:40:22;;;;;;;11.45;4.50;;;;;;;;;;4347826;32;316835;-79
2024/04/17 06:42:48;;;;;;;5.95;3.70;;;;;;;;;;4343679;32;318170;-79
2024/04/17 06:45:15;;;;;;;7.57;4.53;;;;;;;;;;4357598;32;317374;-79
2024/04/17 06:47:40;;;;;;;10.02;4.30;;;;;;;;;;4329681;32;317467;-79
2024/04/17 06:50:09;;;;;;;9.88;3.92;;;;;;;;;;4341752;32;319206;-79
2024/04/17 06:52:35;;;;;;;5.75;3.45;;;;;;;;;;4347713;32;317168;-79
2024/04/17 06:55:02;;;;;;;12.02;4.78;;;;;;;;;;4338549;32;317239;-79
2024/04/17 06:57:28;;;;;;;7.10;3.33;;;;;;;;;;4348604;32;317861;-79
2024/04/17 06:59:55;;;;;;;5.70;3.58;;;;;;;;;;4332981;32;317049;-80
2024/04/17 07:02:21;;;;;;;4.10;3.30;;;;;;;;;;4349294;32;317167;-79
2024/04/17 07:04:47;;;;;;;7.62;3.65;;;;;;;;;;4339444;32;317516;-79
2024/04/17 07:07:14;;;;;;;3.15;1.85;;;;;;;;;;4347567;32;317202;-80
2024/04/17 07:09:41;;;;;;;5.18;1.73;;;;;;;;;;4328554;32;370567;-78
2024/04/17 07:12:09;;;;;;;6.82;1.83;;;;;;;;;;4327192;32;317644;-78
2024/04/17 07:14:34;;;;;;;9.82;1.90;;;;;;;;;;4337721;32;317302;-80
2024/04/17 07:17:01;;;;;;;4.10;2.50;;;;;;;;;;4323242;32;317176;-79
2024/04/17 07:19:27;;;;;;;4.53;1.83;;;;;;;;;;4333307;32;317261;-79
2024/04/17 07:21:54;;;;;;;9.02;2.22;;;;;;;;;;4317072;32;317326;-80
2024/04/17 07:24:23;;;;;;;2.97;1.45;;;;;;;;;;4332149;32;334174;-79
2024/04/17 07:26:50;;;;;;;5.93;1.40;;;;;;;;;;4323114;32;317326;-79
2024/04/17 07:29:16;;;;;;;3.58;1.48;;;;;;;;;;4333605;32;317178;-79
2024/04/17 07:31:43;;;;;;;6.62;3.47;;;;;;;;;;4323465;32;317222;-79
2024/04/17 07:34:09;;;;;;;7.22;3.28;;;;;;;;;;4325973;32;317208;-80
2024/04/17 07:36:36;;;;;;;6.68;3.00;;;;;;;;;;4333118;32;317103;-80
2024/04/17 07:39:03;;;;;;;13.80;4.87;;;;;;;;;;4320914;32;416440;-78
2024/04/17 07:41:31;;;;;;;8.20;4.43;;;;;;;;;;4340097;32;318482;-78
2024/04/17 07:43:57;;;;;;;15.23;4.45;;;;;;;;;;4330071;32;317776;-78
2024/04/17 07:46:23;;;;;;;12.43;4.40;;;;;;;;;;4344635;32;318725;-78
2024/04/17 07:48:50;;;;;;;6.90;4.50;;;;;;;;;;4339812;32;318228;-82
2024/04/17 07:51:17;;;;;;;13.00;5.05;;;;;;;;;;4347723;32;317293;-81
2024/04/17 07:53:42;;;;;;;11.10;3.67;;;;;;;;;;4336411;32;318624;-81
2024/04/17 07:56:09;;;;;;;6.72;4.22;;;;;;;;;;4341881;32;317584;-81
2024/04/17 07:58:36;;;;;;;8.35;3.35;;;;;;;;;;4348287;32;317534;-81
2024/04/17 08:01:05;;;;;;;4.22;2.67;;;;;;;;;;4339693;32;416558;-81
2024/04/17 08:03:36;;;;;;;6.57;2.17;;;;;;;;;;4328275;32;331812;-82
2024/04/17 08:06:02;;;;;;;8.05;2.85;;;;;;;;;;4343779;32;318028;-81
2024/04/17 08:08:29;;;;;;;4.68;2.12;;;;;;;;;;4336744;32;317462;-82
2024/04/17 08:10:56;;;;;;;3.67;2.35;;;;;;;;;;4348862;32;316780;-82
2024/04/17 08:13:22;;;;;;;3.92;1.67;;;;;;;;;;4339647;32;317338;-82
2024/04/17 08:15:53;;;;;;;6.57;2.75;;;;;;;;;;4316645;32;372638;-83
2024/04/17 08:18:19;;;;;;;3.65;1.55;;;;;;;;;;4342618;32;315770;-82
2024/04/17 08:20:46;;;;;;;2.67;1.37;;;;;;;;;;4338917;32;317433;-82
2024/04/17 08:23:14;;;;;;;5.40;1.40;;;;;;;;;;4348715;32;316765;-82
2024/04/17 08:25:41;;;;;;;2.95;1.45;;;;;;;;;;4332530;32;318821;-83
2024/04/17 08:28:11;;;;;;;6.28;2.25;;;;;;;;;;4350895;32;315200;-82
2024/04/17 08:30:38;;;;;;;3.85;1.77;;;;;;;;;;4340283;32;316956;-82
2024/04/17 08:33:06;;;;;;;5.30;1.70;;;;;;;;;;4350815;32;317319;-82
2024/04/17 08:35:36;;;;;;;4.32;1.58;;;;;;;;;;4338597;32;317473;-82
2024/04/17 08:38:02;;;;;;;7.43;1.60;;;;;;;;;;4348707;32;326205;-81
2024/04/17 08:40:29;;;;;;;5.97;2.53;;;;;;;;;;4339278;32;317280;-82
2024/04/17 08:42:56;;;;;;;8.32;2.08;;;;;;;;;;4344835;32;345910;-82
2024/04/17 08:45:29;;;;;;;6.32;3.00;;;;;;;;;;4346124;32;317012;-83
2024/04/17 08:47:57;;;;;;;17.35;8.20;;;;;;;;;;4324868;32;416083;-81
2024/04/17 08:50:29;;;;;;;12.07;2.60;;;;;;;;;;4347047;32;318215;-81
2024/04/17 08:52:59;;;;;;;11.40;2.47;;;;;;;;;;4337131;32;417291;-81
2024/04/17 08:55:26;;;;;;;5.75;1.95;;;;;;;;;;4333204;32;318271;-83
2024/04/17 08:57:53;;;;;;;5.43;2.10;;;;;;;;;;4330516;32;317191;-83
2024/04/17 09:00:20;;;;;;;7.80;1.65;;;;;;;;;;4348327;32;317046;-82
2024/04/17 09:02:48;;;;;;;10.73;2.87;;;;;;;;;;4338021;32;317322;-81
2024/04/17 09:05:15;;;;;;;7.80;2.42;;;;;;;;;;4349183;32;318456;-82
2024/04/17 09:07:46;;;;;;;9.75;2.58;;;;;;;;;;4331805;32;317034;-84
2024/04/17 09:10:11;;;;;;;6.85;3.20;;;;;;;;;;4349198;32;323195;-81
2024/04/17 09:12:44;;;;;;;6.28;2.45;;;;;;;;;;4338104;32;357474;-81
2024/04/17 09:15:12;;;;;;;12.90;2.10;;;;;;;;;;4350580;32;317182;-81
2024/04/17 09:17:39;;;;;;;4.45;1.85;;;;;;;;;;4331319;32;318554;-81
2024/04/17 09:20:06;;;;;;;10.77;6.65;;;;;;;;;;4347664;32;354149;-81
2024/04/17 09:22:32;;;;;;;9.38;1.90;;;;;;;;;;4333300;32;318467;-81
2024/04/17 09:24:59;;;;;;;6.93;1.83;;;;;;;;;;4350043;32;316656;-82
2024/04/17 09:27:26;;;;;;;6.28;2.20;;;;;;;;;;4339314;32;317494;-82
2024/04/17 09:29:52;;;;;;;6.62;2.95;;;;;;;;;;4342152;32;317624;-82
2024/04/17 09:32:19;;;;;;;7.25;2.20;;;;;;;;;;4348597;32;317454;-82
2024/04/17 09:34:45;;;;;;;14.85;2.58;;;;;;;;;;4337804;32;317517;-82
2024/04/17 09:37:12;;;;;;;17.37;3.33;;;;;;;;;;4347367;32;318518;-81
2024/04/17 09:39:38;;;;;;;8.40;3.25;;;;;;;;;;4333158;32;318448;-82
2024/04/17 09:42:09;;;;;;;6.40;2.70;;;;;;;;;;4348868;32;317398;-81
2024/04/17 09:44:37;;;;;;;7.53;2.53;;;;;;;;;;4338900;32;317405;-81
2024/04/17 09:47:08;;;;;;;13.77;2.65;;;;;;;;;;4343982;32;317334;-80
2024/04/17 09:49:34;;;;;;;11.82;3.10;;;;;;;;;;4318889;32;318772;-80
2024/04/17 09:52:04;;;;;;;7.95;3.58;;;;;;;;;;4335296;32;318158;-81
2024/04/17 09:54:30;;;;;;;16.37;3.30;;;;;;;;;;4332199;32;317072;-79
2024/04/17 09:56:58;;;;;;;13.90;3.25;;;;;;;;;;4347208;32;318649;-79
2024/04/17 09:59:26;;;;;;;10.45;3.62;;;;;;;;;;4337962;32;356937;-79
2024/04/17 10:01:56;;;;;;;7.32;3.25;;;;;;;;;;4342179;32;318325;-78
2024/04/17 10:04:23;;;;;;;13.02;3.00;;;;;;;;;;4349087;32;317486;-78
2024/04/17 10:06:49;;;;;;;15.52;3.90;;;;;;;;;;4336147;32;417551;-78
2024/04/17 10:09:16;;;;;;;15.00;3.45;;;;;;;;;;4349093;32;318894;-78
2024/04/17 10:11:42;;;;;;;18.23;4.07;;;;;;;;;;4329991;32;350639;-79
2024/04/17 10:14:10;;;;;;;12.60;3.37;;;;;;;;;;4349307;32;318385;-78
2024/04/17 10:16:38;;;;;;;17.58;3.22;;;;;;;;;;4340168;32;318365;-80
2024/04/17 10:19:04;;;;;;;12.85;3.62;;;;;;;;;;4348717;32;317705;-79
2024/04/17 10:21:35;;;;;;;24.95;3.33;;;;;;;;;;4340119;32;318365;-78
2024/04/17 10:24:02;;;;;;;12.27;3.55;;;;;;;;;;4347337;32;318271;-79
2024/04/17 10:26:35;;;;;;;10.70;2.92;;;;;;;;;;4336822;32;377672;-79
2024/04/17 10:29:02;;;;;;;9.93;3.20;;;;;;;;;;4348590;32;318233;-78
2024/04/17 10:31:33;;;;;;;14.38;3.00;;;;;;;;;;4331367;32;317328;-78
2024/04/17 10:34:04;;;;;;;10.02;2.50;;;;;;;;;;4344570;32;318328;-79
2024/04/17 10:36:29;;;;;;;14.98;4.85;;;;;;;;;;4333727;32;328030;-79
2024/04/17 10:39:00;;;;;;;10.65;2.80;;;;;;;;;;4346003;32;318407;-79
2024/04/17 10:41:28;;;;;;;12.07;3.30;;;;;;;;;;4326113;32;318330;-79
2024/04/17 10:43:57;;;;;;;11.43;2.95;;;;;;;;;;4330938;32;318359;-79
2024/04/17 10:46:23;;;;;;;11.07;2.75;;;;;;;;;;4328968;32;318392;-79
2024/04/17 10:48:51;;;;;;;15.95;2.85;;;;;;;;;;4339086;32;317636;-79
2024/04/17 10:51:20;;;;;;;11.55;2.60;;;;;;;;;;4342630;32;334120;-80
2024/04/17 10:53:51;;;;;;;17.85;5.57;;;;;;;;;;4338690;32;318599;-80
2024/04/17 10:56:17;;;;;;;22.05;3.70;;;;;;;;;;4351965;32;318600;-80
2024/04/17 10:58:44;;;;;;;16.40;3.60;;;;;;;;;;4342844;32;318362;-80
2024/04/17 11:01:12;;;;;;;21.23;3.58;;;;;;;;;;4352246;32;318369;-79
2024/04/17 11:03:39;;;;;;;14.38;3.28;;;;;;;;;;4332280;32;318428;-79
2024/04/17 11:06:08;;;;;;;17.90;4.57;;;;;;;;;;4351942;32;318181;-80
2024/04/17 11:08:41;;;;;;;13.45;4.12;;;;;;;;;;4334926;32;342903;-82
2024/04/17 11:11:09;;;;;;;9.77;2.78;;;;;;;;;;4349744;32;318313;-82
2024/04/17 11:13:41;;;;;;;15.27;3.33;;;;;;;;;;4319616;32;317369;-82
2024/04/17 11:16:07;;;;;;;22.13;3.17;;;;;;;;;;4350703;32;318125;-81
2024/04/17 11:18:35;;;;;;;17.95;4.07;;;;;;;;;;4339418;32;318746;-80
2024/04/17 11:21:01;;;;;;;15.90;2.85;;;;;;;;;;4345379;32;318330;-80
2024/04/17 11:23:27;;;;;;;18.30;2.80;;;;;;;;;;4334230;32;346996;-80
2024/04/17 11:25:55;;;;;;;11.30;2.90;;;;;;;;;;4343475;32;318203;-80
2024/04/17 11:28:21;;;;;;;13.43;3.50;;;;;;;;;;4352596;32;318405;-81
2024/04/17 11:30:48;;;;;;;10.20;2.53;;;;;;;;;;4342744;32;318455;-82
2024/04/17 11:33:15;;;;;;;12.90;2.97;;;;;;;;;;4350193;32;318264;-82
2024/04/17 11:35:41;;;;;;;15.70;3.97;;;;;;;;;;4334803;32;318067;-81
2024/04/17 11:38:08;;;;;;;12.20;3.72;;;;;;;;;;4352101;32;318650;-80
2024/04/17 11:40:34;;;;;;;19.35;3.37;;;;;;;;;;4341169;32;318349;-81
2024/04/17 11:43:12;;;;;;;17.30;3.80;;;;;;;;;;4350648;32;318287;-81
2024/04/17 11:45:38;;;;;;;14.05;3.40;;;;;;;;;;4318960;32;318178;-81
2024/04/17 11:48:05;;;;;;;14.93;3.10;;;;;;;;;;4346449;32;318114;-81
2024/04/17 11:50:31;;;;;;;14.80;3.30;;;;;;;;;;4341065;32;317843;-81
2024/04/17 11:52:57;;;;;;;10.60;3.10;;;;;;;;;;4350231;32;318283;-81
2024/04/17 11:55:23;;;;;;;14.50;3.67;;;;;;;;;;4341490;32;318182;-81
2024/04/17 11:57:50;;;;;;;19.02;3.53;;;;;;;;;;4344673;32;318295;-80
2024/04/17 12:00:17;;;;;;;18.73;4.57;;;;;;;;;;4349272;32;340007;-80
2024/04/17 12:02:44;;;;;;;10.55;2.92;;;;;;;;;;4338194;32;318100;-80
2024/04/17 12:05:09;;;;;;;13.75;3.05;;;;;;;;;;4349677;32;318744;-81
2024/04/17 12:07:36;;;;;;;12.02;3.03;;;;;;;;;;4335204;32;319094;-80
2024/04/17 12:10:02;;;;;;;8.77;3.47;;;;;;;;;;4350124;32;318587;-81
2024/04/17 12:12:29;;;;;;;8.68;2.40;;;;;;;;;;4336582;32;317114;-81
2024/04/17 12:14:58;;;;;;;19.17;3.67;;;;;;;;;;4335327;32;317690;-81
2024/04/17 12:17:26;;;;;;;14.32;2.75;;;;;;;;;;4339308;32;318242;-80
2024/04/17 12:19:51;;;;;;;12.68;4.22;;;;;;;;;;4353064;32;317212;-81
2024/04/17 12:22:19;;;;;;;11.63;4.72;;;;;;;;;;4365420;32;317122;-81
2024/04/17 12:27:30;;;;;;;11.48;2.87;;;;;;;;;;4337227;32;318252;-81
2024/04/17 12:29:57;;;;;;;23.98;4.65;;;;;;;;;;4342975;32;318390;-81
2024/04/17 12:32:26;;;;;;;27.52;4.87;;;;;;;;;;4334600;32;318210;-81
2024/04/17 12:34:52;;;;;;;12.30;4.62;;;;;;;;;;4333796;32;318465;-80
2024/04/17 12:37:19;;;;;;;11.48;3.55;;;;;;;;;;4334553;32;318510;-80
2024/04/17 12:39:46;;;;;;;12.68;3.50;;;;;;;;;;4316875;32;318379;-80
2024/04/17 12:42:14;;;;;;;12.90;3.53;;;;;;;;;;4349161;32;318369;-81
2024/04/17 12:44:40;;;;;;;10.10;2.50;;;;;;;;;;4338606;32;318137;-81
2024/04/17 12:47:07;;;;;;;7.62;3.33;;;;;;;;;;4348669;32;318460;-81
2024/04/17 12:49:35;;;;;;;8.60;2.90;;;;;;;;;;4335849;32;317288;-81
2024/04/17 12:52:03;;;;;;;5.50;1.50;;;;;;;;;;4348443;32;317083;-80
2024/04/17 12:54:28;;;;;;;7.32;1.77;;;;;;;;;;4338847;32;317228;-80
2024/04/17 12:56:55;;;;;;;10.77;2.83;;;;;;;;;;4348834;32;316990;-80
2024/04/17 12:59:22;;;;;;;4.78;2.17;;;;;;;;;;4348534;32;318251;-80
2024/04/17 13:01:48;;;;;;;4.22;0.93;;;;;;;;;;4328838;32;418309;-80
2024/04/17 13:04:14;;;;;;;4.12;1.20;;;;;;;;;;4347498;32;317130;-80
2024/04/17 13:06:41;;;;;;;0.60;0.60;;;;;;;;;;4336053;32;317665;-81
2024/04/17 13:09:08;;;;;;;2.60;0.80;;;;;;;;;;4344089;32;317293;-80
2024/04/17 13:11:38;;;;;;;2.25;1.02;;;;;;;;;;4330569;32;317277;-80
2024/04/17 13:14:05;;;;;;;4.32;0.80;;;;;;;;;;4347541;32;317037;-80
2024/04/17 13:16:31;;;;;;;22.45;3.78;;;;;;;;;;4336034;32;317312;-80
2024/04/17 13:18:57;;;;;;;1.60;0.90;;;;;;;;;;4342665;32;320483;-80
2024/04/17 13:21:23;;;;;;;2.12;1.25;;;;;;;;;;4337333;32;317121;-82
2024/04/17 13:23:51;;;;;;;2.22;0.93;;;;;;;;;;4341137;32;317121;-81
2024/04/17 13:26:17;;;;;;;1.65;0.90;;;;;;;;;;4338610;32;317089;-81
2024/04/17 13:28:44;;;;;;;2.00;0.70;;;;;;;;;;4348107;32;317417;-81
2024/04/17 13:31:10;;;;;;;3.22;1.33;;;;;;;;;;4352145;32;317194;-81
2024/04/17 13:33:38;;;;;;;1.90;0.70;;;;;;;;;;4334589;32;316971;-81
2024/04/17 13:36:06;;;;;;;1.92;0.80;;;;;;;;;;4351754;32;317107;-81
2024/04/17 13:38:33;;;;;;;7.75;2.10;;;;;;;;;;4342494;32;317884;-81
2024/04/17 13:41:01;;;;;;;2.62;1.00;;;;;;;;;;4351029;32;317109;-83
2024/04/17 13:43:28;;;;;;;4.85;1.35;;;;;;;;;;4331951;32;350914;-83
2024/04/17 13:45:55;;;;;;;1.08;0.98;;;;;;;;;;4340764;32;317428;-83
2024/04/17 13:48:22;;;;;;;3.00;0.80;;;;;;;;;;4339439;32;317016;-82
2024/04/17 13:50:56;;;;;;;4.37;0.95;;;;;;;;;;4353199;32;317456;-82
2024/04/17 13:53:23;;;;;;;2.15;0.80;;;;;;;;;;4344967;32;317799;-83
2024/04/17 13:55:48;;;;;;;1.48;0.82;;;;;;;;;;4347792;32;316619;-82
2024/04/17 13:58:17;;;;;;;2.22;1.30;;;;;;;;;;4347187;32;317255;-82
2024/04/17 14:00:42;;;;;;;1.62;1.10;;;;;;;;;;4345607;32;317241;-82
2024/04/17 14:03:09;;;;;;;10.48;7.43;;;;;;;;;;4341405;32;316158;-82
2024/04/17 14:05:35;;;;;;;5.07;1.80;;;;;;;;;;4326801;32;329892;-82
2024/04/17 14:08:02;;;;;;;2.78;1.50;;;;;;;;;;4362104;32;317010;-82
2024/04/17 14:10:27;;;;;;;2.12;1.23;;;;;;;;;;4353975;32;317103;-82
2024/04/17 14:12:54;;;;;;;1.58;1.00;;;;;;;;;;4363662;32;315981;-82
2024/04/17 14:15:21;;;;;;;1.33;0.90;;;;;;;;;;4341382;32;317455;-82
2024/04/17 14:17:48;;;;;;;2.70;0.85;;;;;;;;;;4340462;32;317232;-83
2024/04/17 14:20:14;;;;;;;4.95;1.05;;;;;;;;;;4347806;32;336575;-83
2024/04/17 14:22:41;;;;;;;5.37;1.20;;;;;;;;;;4338982;32;416211;-83